Kitwanga, Canada
Current Conditions -  °F | °C
As of 7:00 PM on Friday 19 Dec 2014 (Local Time) from CYYD Reporting Station
Overcast Overcast  
Wind Chill: 23°   Ceiling: 6000
Heat Index: 30°   Visibility: 20mi
Dew Point: 28°   Wind: 7mph
Humidity: 93%   Direction: 150°SSE
Pressure: 29.48"   Gusts: NA
Location:  55.1°N, 128.07°W
Report Text: CYYD 200300Z 15006KT 20SM BKN060 OVC075 M01/M02 A2948 RMK SC6AC2 SLP004
Loading
Personal Weather Stations






























Interactive Weather Map New forecast layout! Learn more

10-Day Weather Forecast

Advertisements
Track Severe Weather on mobile